Time;durP1;ratioP1;P1;durP2;ratioP2;P2;SDS_P1;SDS_P2;PMS_P1;PMS_P2;Temp;Humidity;BMP_temperature;BMP_pressure;BME280_temperature;BME280_humidity;BME280_pressure;Samples;Min_cycle;Max_cycle;Signal;HPM_P1;HPM_P2
2023/09/14 00:02:15;;;;;;;4.53;1.70;;;15.30;1.00;;;;;;4944140;29;20488;-81
2023/09/14 00:05:10;;;;;;;2.50;1.40;;;15.30;1.00;;;;;;4937875;29;20661;-80
2023/09/14 00:07:52;;;;;;;2.63;1.30;;;15.30;1.00;;;;;;4915878;29;20399;-81
2023/09/14 00:10:28;;;;;;;3.03;1.43;;;15.20;1.00;;;;;;4931518;29;20419;-80
2023/09/14 00:13:05;;;;;;;1.73;1.50;;;15.20;1.00;;;;;;4939885;29;20945;-81
2023/09/14 00:16:04;;;;;;;8.73;1.63;;;15.10;1.00;;;;;;4936032;29;20462;-81
2023/09/14 00:19:04;;;;;;;5.13;1.50;;;15.10;1.00;;;;;;4917035;29;20383;-81
2023/09/14 00:21:46;;;;;;;5.50;1.90;;;15.10;1.00;;;;;;4938988;29;20936;-81
2023/09/14 00:27:40;;;;;;;1.23;1.10;;;15.00;1.00;;;;;;4931798;29;20410;-81
2023/09/14 00:30:11;;;;;;;2.07;1.40;;;14.90;1.00;;;;;;4931765;29;20498;-81
2023/09/14 00:33:04;;;;;;;3.03;1.70;;;14.90;1.00;;;;;;4953489;29;20400;-81
2023/09/14 00:35:46;;;;;;;6.40;1.67;;;14.90;1.00;;;;;;4939004;29;20459;-81
2023/09/14 00:38:16;;;;;;;2.73;1.60;;;14.80;1.00;;;;;;4943046;29;20423;-81
2023/09/14 00:41:34;;;;;;;6.90;1.90;;;14.80;1.00;;;;;;4943384;29;20505;-81
2023/09/14 00:44:04;;;;;;;6.20;2.13;;;14.80;1.00;;;;;;4943878;29;20420;-81
2023/09/14 00:46:30;;;;;;;9.97;1.63;;;14.70;1.00;;;;;;4939345;29;20477;-81
2023/09/14 00:49:41;;;;;;;11.13;1.97;;;14.70;1.00;;;;;;4944860;29;20488;-80
2023/09/14 00:52:35;;;;;;;6.50;1.93;;;14.70;1.00;;;;;;4955218;29;20453;-80
2023/09/14 00:55:12;;;;;;;3.23;1.43;;;14.60;1.00;;;;;;4926254;29;20527;-81
2023/09/14 00:57:38;;;;;;;3.53;1.87;;;14.50;1.00;;;;;;4948424;29;20442;-81
2023/09/14 01:00:23;;;;;;;2.67;2.00;;;14.60;1.00;;;;;;4954656;29;20421;-81
2023/09/14 01:03:28;;;;;;;2.03;1.77;;;14.50;1.00;;;;;;4938822;29;20488;-81
2023/09/14 01:05:59;;;;;;;4.23;1.53;;;14.40;1.00;;;;;;4919986;29;20859;-81
2023/09/14 01:08:35;;;;;;;3.57;1.70;;;14.40;1.00;;;;;;4950615;29;20519;-81
2023/09/14 01:11:22;;;;;;;2.60;1.70;;;14.40;1.00;;;;;;4934483;29;20406;-81
2023/09/14 01:14:11;;;;;;;4.97;2.00;;;14.30;1.00;;;;;;4920021;29;20503;-81
2023/09/14 01:17:02;;;;;;;3.37;1.53;;;14.30;1.00;;;;;;4918409;29;20971;-81
2023/09/14 01:19:50;;;;;;;6.90;2.13;;;14.20;1.00;;;;;;4936892;29;20500;-81
2023/09/14 01:22:35;;;;;;;2.70;1.90;;;14.20;1.00;;;;;;4957680;29;20853;-81
2023/09/14 01:25:23;;;;;;;4.60;1.67;;;14.20;1.00;;;;;;4919336;29;20402;-80
2023/09/14 01:28:40;;;;;;;4.23;1.63;;;14.10;1.00;;;;;;4938756;29;20394;-81
2023/09/14 01:31:16;;;;;;;2.00;1.80;;;14.10;1.00;;;;;;4922505;29;20471;-80
2023/09/14 01:33:48;;;;;;;3.90;1.60;;;14.00;1.00;;;;;;4930596;29;20541;-81
2023/09/14 01:36:28;;;;;;;7.50;1.80;;;14.10;1.00;;;;;;4936763;29;20499;-80
2023/09/14 01:39:04;;;;;;;7.50;1.97;;;14.00;1.00;;;;;;4936497;29;20443;-81
2023/09/14 01:41:49;;;;;;;4.87;1.57;;;14.00;1.00;;;;;;4939391;29;20518;-80
2023/09/14 01:44:40;;;;;;;3.83;1.73;;;14.00;1.00;;;;;;4931976;29;20434;-80
2023/09/14 01:47:06;;;;;;;3.17;1.53;;;13.90;1.00;;;;;;4945219;29;20443;-80
2023/09/14 01:49:47;;;;;;;9.30;1.97;;;13.80;1.00;;;;;;4937308;29;20464;-80
2023/09/14 01:52:52;;;;;;;5.40;1.90;;;13.80;1.00;;;;;;4937250;29;20926;-80
2023/09/14 01:55:22;;;;;;;3.90;1.70;;;13.80;1.00;;;;;;4929404;29;20433;-81
2023/09/14 01:57:58;;;;;;;10.83;1.93;;;13.70;1.00;;;;;;4938013;29;20406;-81
2023/09/14 02:00:40;;;;;;;6.90;2.17;;;13.70;1.00;;;;;;4931933;29;20431;-81
2023/09/14 02:03:16;;;;;;;11.07;2.00;;;13.60;1.00;;;;;;4926207;29;20499;-80
2023/09/14 02:06:01;;;;;;;2.37;1.57;;;13.60;1.00;;;;;;4948788;29;20413;-80
2023/09/14 02:08:29;;;;;;;2.30;1.80;;;13.60;1.00;;;;;;4926026;29;20539;-81
2023/09/14 02:11:13;;;;;;;4.27;1.90;;;13.50;1.00;;;;;;4929339;29;20426;-81
2023/09/14 02:14:16;;;;;;;6.63;1.87;;;13.60;1.00;;;;;;4933437;29;20438;-80
2023/09/14 02:16:58;;;;;;;2.83;1.70;;;13.50;1.00;;;;;;4932231;29;20439;-80
2023/09/14 02:19:58;;;;;;;3.37;1.80;;;13.50;1.00;;;;;;4937328;29;20885;-81
2023/09/14 02:22:58;;;;;;;6.70;2.07;;;13.30;1.00;;;;;;4926411;29;20513;-80
2023/09/14 02:25:42;;;;;;;7.20;2.20;;;13.30;1.00;;;;;;4926312;29;20438;-80
2023/09/14 02:28:19;;;;;;;17.23;2.67;;;13.20;1.00;;;;;;4942590;29;20401;-81
2023/09/14 02:30:45;;;;;;;8.40;2.03;;;13.20;1.00;;;;;;4919488;29;20414;-81
2023/09/14 02:33:36;;;;;;;5.53;2.30;;;13.10;1.00;;;;;;4929897;29;20404;-80
2023/09/14 02:36:02;;;;;;;3.87;1.80;;;13.10;1.00;;;;;;4927322;29;20191;-81
2023/09/14 02:38:40;;;;;;;4.27;2.10;;;13.00;1.00;;;;;;4934725;29;20386;-80
2023/09/14 02:41:10;;;;;;;3.13;1.70;;;13.00;1.00;;;;;;4928549;29;20190;-80
2023/09/14 02:43:58;;;;;;;4.40;2.17;;;12.90;1.00;;;;;;4941882;29;20397;-81
2023/09/14 02:46:24;;;;;;;4.00;1.80;;;12.90;1.00;;;;;;4941785;29;20436;-81
2023/09/14 02:48:58;;;;;;;9.00;2.13;;;12.90;1.00;;;;;;4943519;29;20438;-81
2023/09/14 02:51:47;;;;;;;6.17;2.20;;;12.90;1.00;;;;;;4933258;29;20202;-80
2023/09/14 02:54:17;;;;;;;4.27;2.07;;;12.80;1.00;;;;;;4940925;29;20418;-79
2023/09/14 02:56:52;;;;;;;3.17;2.13;;;12.80;1.00;;;;;;4935760;29;20974;-80
2023/09/14 02:59:22;;;;;;;1.87;1.70;;;12.70;1.00;;;;;;4950253;29;20760;-80
2023/09/14 03:02:02;;;;;;;4.10;1.80;;;12.70;1.00;;;;;;4948363;29;20419;-79
2023/09/14 03:04:37;;;;;;;4.37;1.90;;;12.70;1.00;;;;;;4952075;29;20414;-80
2023/09/14 03:07:03;;;;;;;8.73;2.03;;;12.70;1.00;;;;;;4952877;29;20418;-80
2023/09/14 03:09:29;;;;;;;3.30;1.87;;;12.70;1.00;;;;;;4935423;29;20426;-80
2023/09/14 03:12:28;;;;;;;6.20;1.97;;;12.60;1.00;;;;;;4936555;29;20895;-79
2023/09/14 03:14:54;;;;;;;6.33;2.40;;;12.60;1.00;;;;;;4925472;29;20481;-79
2023/09/14 03:17:23;;;;;;;9.83;2.30;;;12.50;1.00;;;;;;4921031;29;20502;-80
2023/09/14 03:20:13;;;;;;;4.40;2.50;;;12.50;1.00;;;;;;4935114;29;20183;-87
2023/09/14 03:22:46;;;;;;;4.30;1.80;;;12.50;1.00;;;;;;4943534;29;20479;-87
2023/09/14 03:26:04;;;;;;;6.83;2.13;;;12.50;1.00;;;;;;4931757;29;20450;-87
2023/09/14 03:28:52;;;;;;;3.87;1.83;;;12.40;1.00;;;;;;4940737;29;20415;-87
2023/09/14 03:31:25;;;;;;;6.20;2.37;;;12.40;1.00;;;;;;4936522;29;20563;-87
2023/09/14 03:38:04;;;;;;;9.40;2.60;;;12.30;1.00;;;;;;4927559;29;20410;-88
2023/09/14 03:43:52;;;;;;;4.73;2.30;;;12.30;1.00;;;;;;4936111;29;20401;-88
2023/09/14 03:46:18;;;;;;;8.23;2.53;;;12.40;1.00;;;;;;4947798;29;20454;-88
2023/09/14 03:52:35;;;;;;;3.40;2.37;;;12.30;1.00;;;;;;4936476;29;20491;-88
2023/09/14 03:58:23;;;;;;;3.90;2.60;;;12.30;1.00;;;;;;4946867;29;20486;-88
2023/09/14 04:00:59;;;;;;;8.10;2.57;;;12.30;1.00;;;;;;4958356;29;20501;-88
2023/09/14 04:03:24;;;;;;;4.07;2.47;;;12.30;1.00;;;;;;4959021;29;20427;-87
2023/09/14 04:13:32;;;;;;;4.93;2.30;;;12.20;1.00;;;;;;4921939;29;20417;-88
2023/09/14 04:19:20;;;;;;;3.37;2.13;;;12.20;1.00;;;;;;4951853;29;20410;-88
2023/09/14 04:21:59;;;;;;;4.73;2.80;;;;;;;;;;4939439;29;20415;-87
2023/09/14 04:31:46;;;;;;;5.57;2.90;;;12.10;1.00;;;;;;4943487;29;20381;-88
2023/09/14 04:34:29;;;;;;;16.50;3.83;;;;;;;;;;4937320;29;20533;-87
2023/09/14 04:40:16;;;;;;;5.53;2.23;;;12.10;1.00;;;;;;4939378;29;20736;-87
2023/09/14 04:46:05;;;;;;;6.33;2.30;;;12.00;1.00;;;;;;4920629;29;20200;-87
2023/09/14 04:51:52;;;;;;;10.23;3.00;;;11.90;1.00;;;;;;4920834;29;20966;-87
2023/09/14 04:57:40;;;;;;;7.47;2.83;;;11.90;1.00;;;;;;4939421;29;20195;-87
2023/09/14 05:06:50;;;;;;;5.23;2.73;;;11.80;1.00;;;;;;4950525;28;20559;-87
2023/09/14 05:09:52;;;;;;;13.70;2.53;;;11.90;1.00;;;;;;4935147;29;20936;-87
2023/09/14 05:12:29;;;;;;;8.13;3.00;;;;;;;;;;4938036;29;20184;-87
2023/09/14 05:18:22;;;;;;;6.40;3.13;;;12.00;1.00;;;;;;4925509;29;20454;-87
2023/09/14 05:21:28;;;;;;;5.53;2.93;;;12.10;1.00;;;;;;4937593;29;20931;-87
2023/09/14 05:24:46;;;;;;;6.97;3.30;;;12.10;1.00;;;;;;4942487;29;20412;-86
2023/09/14 05:31:28;;;;;;;14.80;3.80;;;12.20;1.00;;;;;;4944190;29;21041;-86
2023/09/14 05:34:10;;;;;;;5.57;2.70;;;12.20;1.00;;;;;;4939300;29;20462;-87
2023/09/14 05:36:36;;;;;;;5.00;3.07;;;12.40;1.00;;;;;;4950707;29;20948;-87
2023/09/14 05:39:12;;;;;;;3.27;2.97;;;12.30;1.00;;;;;;4930783;29;20424;-87
2023/09/14 05:41:40;;;;;;;9.70;3.17;;;12.40;1.00;;;;;;4939909;29;20174;-86
2023/09/14 05:44:34;;;;;;;4.37;2.63;;;12.40;1.00;;;;;;4932935;29;20439;-86
2023/09/14 05:47:01;;;;;;;8.10;3.13;;;12.50;1.00;;;;;;4933360;29;20497;-87
2023/09/14 05:49:27;;;;;;;4.57;3.33;;;12.50;1.00;;;;;;4936680;29;20450;-93
2023/09/14 05:51:59;;;;;;;9.00;3.73;;;12.90;1.00;;;;;;4923234;29;20806;-87
2023/09/14 05:54:36;;;;;;;13.60;3.57;;;12.60;1.00;;;;;;4937470;29;20219;-86
2023/09/14 05:57:10;;;;;;;6.27;2.80;;;12.70;1.00;;;;;;4943811;29;20513;-87
2023/09/14 05:59:46;;;;;;;4.23;2.57;;;12.70;1.00;;;;;;4944980;29;20509;-87
2023/09/14 06:02:18;;;;;;;8.20;3.40;;;12.90;1.00;;;;;;4942146;29;20963;-87
2023/09/14 06:08:28;;;;;;;5.77;3.03;;;12.90;1.00;;;;;;4938462;29;20915;-88
2023/09/14 06:11:11;;;;;;;7.33;3.10;;;13.00;1.00;;;;;;4935380;29;20413;-87
2023/09/14 06:13:36;;;;;;;9.60;3.23;;;13.00;1.00;;;;;;4935019;29;20771;-86
2023/09/14 06:16:02;;;;;;;14.23;2.90;;;13.10;1.00;;;;;;4942540;29;20457;-87
2023/09/14 06:18:28;;;;;;;3.93;2.43;;;13.10;1.00;;;;;;4935046;29;20183;-87
2023/09/14 06:21:10;;;;;;;6.03;2.60;;;13.70;1.00;;;;;;4935713;29;20852;-92
2023/09/14 06:23:40;;;;;;;13.27;3.33;;;13.30;1.00;;;;;;4936574;29;20338;-92
2023/09/14 06:26:06;;;;;;;4.40;2.50;;;13.40;1.00;;;;;;4945678;29;20444;-93
2023/09/14 06:28:32;;;;;;;13.57;3.30;;;13.90;1.00;;;;;;4935531;29;20382;-93
2023/09/14 06:31:04;;;;;;;8.20;2.73;;;13.70;1.00;;;;;;4935453;29;20650;-93
2023/09/14 06:33:34;;;;;;;7.33;3.37;;;13.80;1.00;;;;;;4934558;29;20266;-93
2023/09/14 06:36:00;;;;;;;8.60;2.90;;;13.80;1.00;;;;;;4940246;28;20439;-86
2023/09/14 06:38:26;;;;;;;7.47;3.60;;;13.90;1.00;;;;;;4921043;29;20427;-86
2023/09/14 06:40:52;;;;;;;4.23;3.07;;;14.10;1.00;;;;;;4944647;29;20218;-85
2023/09/14 06:43:18;;;;;;;15.10;3.70;;;14.10;1.00;;;;;;4938452;29;20238;-85
2023/09/14 06:49:06;;;;;;;10.93;3.47;;;14.40;1.00;;;;;;4936117;29;20417;-85
2023/09/14 06:55:16;;;;;;;6.90;3.57;;;14.70;1.00;;;;;;4938265;29;20198;-92
2023/09/14 07:01:05;;;;;;;14.77;3.20;;;14.80;1.00;;;;;;4937290;29;20490;-92
2023/09/14 07:06:52;;;;;;;9.53;3.43;;;15.00;1.00;;;;;;4944328;28;20458;-86
2023/09/14 07:13:10;;;;;;;11.50;3.40;;;15.30;1.00;;;;;;4956397;29;20231;-85
2023/09/14 07:18:59;;;;;;;14.10;4.10;;;15.50;1.00;;;;;;4917978;29;20972;-86
2023/09/14 07:21:54;;;;;;;6.47;3.70;;;15.80;1.00;;;;;;4935018;29;20453;-86
2023/09/14 07:25:10;;;;;;;7.93;2.80;;;15.80;1.00;;;;;;4936716;29;20423;-86
2023/09/14 07:31:03;;;;;;;4.03;2.80;;;16.00;1.00;;;;;;4936715;29;20435;-86
2023/09/14 07:33:29;;;;;;;12.07;3.00;;;16.10;1.00;;;;;;4935738;29;20423;-86
2023/09/14 07:39:17;;;;;;;6.80;3.60;;;16.30;1.00;;;;;;4929008;29;20392;-94
2023/09/14 07:42:04;;;;;;;8.50;3.30;;;16.40;1.00;;;;;;4943083;29;20425;-93
2023/09/14 07:48:00;;;;;;;6.00;2.83;;;16.50;1.00;;;;;;4924376;29;20481;-93
2023/09/14 07:53:48;;;;;;;9.20;2.90;;;16.60;1.00;;;;;;4936656;29;20405;-86
2023/09/14 07:59:35;;;;;;;6.17;2.73;;;16.80;1.00;;;;;;4936442;29;20471;-86
2023/09/14 08:02:01;;;;;;;7.50;2.80;;;16.90;1.00;;;;;;4938846;29;20400;-86
2023/09/14 08:08:05;;;;;;;6.10;2.70;;;17.00;1.00;;;;;;4937067;29;20236;-86
2023/09/14 08:17:14;;;;;;;9.90;2.00;;;17.40;1.00;;;;;;4917541;29;20372;-86
2023/09/14 08:19:40;;;;;;;4.57;2.77;;;17.50;1.00;;;;;;4916387;29;20418;-86
2023/09/14 08:22:06;;;;;;;11.13;2.53;;;17.50;1.00;;;;;;4932702;29;20186;-94
2023/09/14 08:27:53;;;;;;;8.87;2.70;;;17.80;1.00;;;;;;4940826;29;20214;-94
2023/09/14 08:33:41;;;;;;;8.20;2.10;;;17.80;1.00;;;;;;4935371;28;20671;-93
2023/09/14 08:36:34;;;;;;;10.73;2.20;;;17.80;1.00;;;;;;4947173;29;20426;-95
2023/09/14 08:49:35;;;;;;;8.60;2.00;;;18.30;1.00;;;;;;4949027;29;20463;-95
2023/09/14 08:59:19;;;;;;;5.13;2.30;;;18.60;1.00;;;;;;4939559;29;20415;-94
2023/09/14 09:02:02;;;;;;;3.57;1.67;;;18.60;1.00;;;;;;4941604;29;20532;-95
2023/09/14 09:05:18;;;;;;;7.13;1.40;;;18.70;1.00;;;;;;4932860;29;20395;-95
2023/09/14 09:14:54;;;;;;;4.07;1.50;;;18.90;1.00;;;;;;4939135;29;20438;-85
2023/09/14 09:24:07;;;;;;;5.73;1.43;;;19.10;1.00;;;;;;4944637;29;20469;-91
2023/09/14 09:30:01;;;;;;;8.23;1.77;;;19.10;1.00;;;;;;4933586;29;20930;-90
2023/09/14 09:32:42;;;;;;;3.43;1.53;;;19.20;1.00;;;;;;4937830;29;20455;-90
2023/09/14 09:38:41;;;;;;;4.67;1.70;;;19.40;1.00;;;;;;4940198;29;20990;-86
2023/09/14 09:44:29;;;;;;;7.03;1.57;;;19.60;1.00;;;;;;4936207;29;20402;-85
2023/09/14 09:50:58;;;;;;;11.03;1.70;;;19.70;1.00;;;;;;4938484;29;20544;-86
2023/09/14 09:54:10;;;;;;;4.83;1.73;;;19.90;1.00;;;;;;4936862;29;20440;-86
2023/09/14 10:10:04;;;;;;;4.20;1.60;;;20.30;1.00;;;;;;4930744;29;20508;-90
2023/09/14 10:16:25;;;;;;;6.40;2.33;;;20.40;1.00;;;;;;4933598;29;20440;-89
2023/09/14 10:19:47;;;;;;;4.13;1.87;;;20.40;1.00;;;;;;4937492;29;20488;-90
2023/09/14 10:25:36;;;;;;;2.57;1.50;;;20.50;1.00;;;;;;4926565;29;20567;-89
2023/09/14 10:28:29;;;;;;;8.00;1.90;;;20.60;1.00;;;;;;4939314;29;20449;-86
2023/09/14 10:31:13;;;;;;;5.17;1.80;;;20.70;1.00;;;;;;4936766;29;20460;-88
2023/09/14 10:34:22;;;;;;;2.80;1.50;;;20.70;1.00;;;;;;4950082;29;20494;-86
2023/09/14 10:40:12;;;;;;;3.33;1.30;;;20.80;1.00;;;;;;4930634;29;20463;-92
2023/09/14 10:43:30;;;;;;;6.10;1.83;;;20.90;1.00;;;;;;4948631;29;20443;-91
2023/09/14 10:49:28;;;;;;;2.03;1.30;;;21.20;1.00;;;;;;4947012;29;20488;-91
2023/09/14 10:55:26;;;;;;;6.30;1.93;;;21.20;1.00;;;;;;4928180;29;20422;-91
2023/09/14 10:57:52;;;;;;;5.03;1.50;;;21.20;1.00;;;;;;4947455;29;20502;-91
2023/09/14 11:00:42;;;;;;;8.50;1.57;;;21.30;1.00;;;;;;4919885;29;20485;-89
2023/09/14 11:03:58;;;;;;;2.63;1.37;;;21.40;1.00;;;;;;4934958;29;20440;-90
2023/09/14 11:06:51;;;;;;;4.23;1.67;;;21.60;1.00;;;;;;4936574;29;20474;-92
2023/09/14 11:12:39;;;;;;;6.30;1.50;;;21.80;1.00;;;;;;4936866;29;20458;-86
2023/09/14 11:28:40;;;;;;;7.03;1.40;;;22.20;1.00;;;;;;4937469;29;20423;-91
2023/09/14 11:31:46;;;;;;;2.63;1.07;;;22.30;1.00;;;;;;4933720;29;20519;-85
2023/09/14 11:34:44;;;;;;;4.50;1.20;;;22.40;1.00;;;;;;4941796;29;20437;-85
2023/09/14 11:40:58;;;;;;;4.67;1.50;;;22.60;1.00;;;;;;4925428;29;20398;-86
2023/09/14 11:50:43;;;;;;;7.67;1.60;;;22.70;1.00;;;;;;4955473;29;20427;-87
2023/09/14 11:53:37;;;;;;;2.70;1.30;;;22.80;1.00;;;;;;4942069;29;20434;-86
2023/09/14 11:56:55;;;;;;;6.87;1.53;;;22.90;1.00;;;;;;4935639;29;20472;-86
2023/09/14 12:06:16;;;;;;;3.07;1.40;;;23.10;1.00;;;;;;4925370;29;20466;-87
2023/09/14 12:12:29;;;;;;;2.50;1.37;;;23.00;1.00;;;;;;4926993;29;20407;-86
2023/09/14 12:22:16;;;;;;;1.93;1.50;;;22.70;1.00;;;;;;4952145;28;20426;-86
2023/09/14 12:28:07;;;;;;;3.40;1.60;;;23.00;1.00;;;;;;4959352;29;20912;-93
2023/09/14 12:37:19;;;;;;;3.53;1.30;;;23.30;1.00;;;;;;4940217;29;20429;-94
2023/09/14 12:46:28;;;;;;;2.20;1.33;;;23.10;1.00;;;;;;4946980;28;21007;-94
2023/09/14 12:55:40;;;;;;;2.67;1.20;;;22.60;1.00;;;;;;4947587;29;20421;-94
2023/09/14 13:01:29;;;;;;;2.83;1.30;;;22.80;1.00;;;;;;4926844;29;20783;-93
2023/09/14 13:07:16;;;;;;;2.70;1.40;;;23.40;1.00;;;;;;4953056;28;20506;-94
2023/09/14 13:13:09;;;;;;;6.17;2.13;;;24.10;1.00;;;;;;4925050;28;20175;-89
2023/09/14 13:19:03;;;;;;;6.37;2.00;;;24.30;1.00;;;;;;4928916;29;20829;-92
2023/09/14 13:24:50;;;;;;;3.70;1.27;;;24.10;1.00;;;;;;4939121;29;20410;-92
2023/09/14 13:27:34;;;;;;;4.80;1.17;;;24.20;1.00;;;;;;4938382;29;20427;-91
2023/09/14 13:30:40;;;;;;;5.13;1.53;;;24.50;1.00;;;;;;4937506;29;20181;-90
2023/09/14 13:39:50;;;;;;;2.73;1.10;;;24.70;1.00;;;;;;4933846;29;20462;-94
2023/09/14 13:45:53;;;;;;;2.93;1.10;;;24.20;1.00;;;;;;4945408;29;20210;-90
2023/09/14 13:52:05;;;;;;;1.40;1.10;;;23.80;1.00;;;;;;4952726;29;20431;-87
2023/09/14 13:54:58;;;;;;;2.47;1.23;;;23.60;1.00;;;;;;4937070;29;20966;-92
2023/09/14 13:58:09;;;;;;;5.13;1.33;;;23.60;1.00;;;;;;4942986;29;20676;-87
2023/09/14 14:01:00;;;;;;;2.30;1.30;;;23.60;1.00;;;;;;4933717;29;20424;-83
2023/09/14 14:13:31;;;;;;;3.03;1.40;;;23.50;1.00;;;;;;4949551;29;20516;-93
2023/09/14 14:16:16;;;;;;;2.73;1.13;;;23.50;1.00;;;;;;4935141;29;20454;-93
2023/09/14 14:22:04;;;;;;;3.07;1.27;;;23.50;1.00;;;;;;4939240;29;20405;-96
2023/09/14 14:28:05;;;;;;;2.60;1.17;;;23.70;1.00;;;;;;4919102;29;20694;-86
2023/09/14 14:34:16;;;;;;;3.37;1.40;;;23.90;1.00;;;;;;4928518;29;20420;-86
2023/09/14 14:36:47;;;;;;;2.60;1.13;;;23.90;1.00;;;;;;4924335;29;20436;-87
2023/09/14 14:46:22;;;;;;;5.30;1.50;;;23.60;1.00;;;;;;4954244;28;20577;-84
2023/09/14 14:48:59;;;;;;;3.93;1.53;;;23.50;1.00;;;;;;4947763;29;20419;-87
2023/09/14 14:54:59;;;;;;;1.70;1.17;;;23.60;1.00;;;;;;4918248;29;21041;-85
2023/09/14 15:00:48;;;;;;;1.47;1.00;;;23.70;1.00;;;;;;4929795;28;20428;-91
2023/09/14 15:06:35;;;;;;;2.47;1.07;;;24.50;1.00;;;;;;4937678;29;20516;-91
2023/09/14 15:12:35;;;;;;;3.50;1.30;;;28.50;1.00;;;;;;4918574;29;20191;-90
2023/09/14 15:15:05;;;;;;;3.73;1.00;;;28.60;1.00;;;;;;4936194;29;20916;-90
2023/09/14 15:18:22;;;;;;;5.73;1.40;;;29.80;1.00;;;;;;4935700;29;20439;-91
2023/09/14 15:27:34;;;;;;;1.90;1.00;;;32.60;1.00;;;;;;4924683;29;20475;-91
2023/09/14 15:30:46;;;;;;;3.73;1.20;;;33.70;1.00;;;;;;4935448;29;20438;-91
2023/09/14 15:33:29;;;;;;;2.50;1.20;;;34.30;1.00;;;;;;4940991;28;20432;-91
2023/09/14 15:39:16;;;;;;;2.73;1.07;;;34.90;1.00;;;;;;4918062;29;20412;-91
2023/09/14 15:42:34;;;;;;;3.03;0.90;;;35.10;1.00;;;;;;4945720;29;20910;-88
2023/09/14 15:48:22;;;;;;;1.57;0.90;;;36.00;1.00;;;;;;4940529;29;20465;-89
2023/09/14 15:57:52;;;;;;;4.70;1.23;;;37.20;1.00;;;;;;4921819;29;20407;-91
2023/09/14 16:03:41;;;;;;;1.37;1.03;;;37.40;1.00;;;;;;4940528;29;20474;-91
2023/09/14 16:06:17;;;;;;;3.40;1.20;;;37.10;1.00;;;;;;4930111;29;20467;-91
2023/09/14 16:12:05;;;;;;;1.10;1.00;;;36.70;1.00;;;;;;4943393;29;20417;-89
2023/09/14 16:14:52;;;;;;;4.43;1.00;;;35.80;1.00;;;;;;4950665;29;20420;-89
2023/09/14 16:17:23;;;;;;;5.70;0.90;;;34.80;1.00;;;;;;4921804;29;20420;-89
2023/09/14 16:19:59;;;;;;;2.53;1.20;;;33.80;1.00;;;;;;4950682;29;20801;-88
2023/09/14 16:22:25;;;;;;;2.90;1.00;;;31.90;1.00;;;;;;4936732;29;20438;-88
2023/09/14 16:28:13;;;;;;;2.37;1.30;;;30.80;1.00;;;;;;4931245;29;20845;-85
2023/09/14 16:34:46;;;;;;;2.33;1.03;;;29.30;1.00;;;;;;4931579;29;20545;-84
2023/09/14 16:37:28;;;;;;;4.90;1.60;;;28.40;1.00;;;;;;4939870;29;20433;-89
2023/09/14 16:40:11;;;;;;;4.70;1.40;;;27.60;1.00;;;;;;4938224;29;20929;-92
2023/09/14 16:42:53;;;;;;;3.00;1.13;;;26.70;1.00;;;;;;4939426;29;20454;-92
2023/09/14 16:52:46;;;;;;;1.83;1.37;;;24.80;1.00;;;;;;4932459;29;20958;-89
2023/09/14 16:55:52;;;;;;;1.30;1.20;;;24.10;1.00;;;;;;4950516;29;20454;-93
2023/09/14 17:02:01;;;;;;;2.80;1.20;;;22.50;1.00;;;;;;4946215;29;20426;-89
2023/09/14 17:04:27;;;;;;;2.80;1.50;;;22.40;1.00;;;;;;4937042;29;20464;-92
2023/09/14 17:07:34;;;;;;;4.53;1.20;;;21.80;1.00;;;;;;4923678;29;20487;-93
2023/09/14 17:10:40;;;;;;;2.40;1.67;;;21.70;1.00;;;;;;4935364;29;20188;-93
2023/09/14 17:13:52;;;;;;;3.93;1.87;;;21.10;1.00;;;;;;4934340;29;20409;-93
2023/09/14 17:16:35;;;;;;;4.50;1.30;;;21.00;1.00;;;;;;4936239;29;20470;-93
2023/09/14 17:22:52;;;;;;;2.60;1.33;;;20.40;1.00;;;;;;4938834;29;20539;-89
2023/09/14 17:28:53;;;;;;;2.63;1.20;;;19.80;1.00;;;;;;4941703;29;20432;-84
2023/09/14 17:31:46;;;;;;;3.67;1.40;;;19.50;1.00;;;;;;4938055;29;20943;-91
2023/09/14 17:34:52;;;;;;;3.37;1.20;;;19.20;1.00;;;;;;4947897;29;20427;-88
2023/09/14 17:40:41;;;;;;;2.93;1.50;;;18.70;1.00;;;;;;4930329;29;20466;-87
2023/09/14 17:49:50;;;;;;;4.03;1.30;;;18.00;1.00;;;;;;4920234;29;20367;-93
2023/09/14 17:53:12;;;;;;;5.67;1.70;;;17.80;1.00;;;;;;4934841;29;20803;-93
2023/09/14 17:55:39;;;;;;;1.47;1.30;;;17.50;1.00;;;;;;4930459;29;20688;-91
2023/09/14 17:58:11;;;;;;;1.83;1.43;;;17.40;1.00;;;;;;4940825;29;20431;-91
2023/09/14 18:00:41;;;;;;;8.63;1.53;;;17.20;1.00;;;;;;4937350;29;20446;-92
2023/09/14 18:03:40;;;;;;;4.03;1.87;;;17.10;1.00;;;;;;4955147;28;20456;-90
2023/09/14 18:12:50;;;;;;;3.03;1.87;;;16.60;1.00;;;;;;4937911;29;20414;-88
2023/09/14 18:15:40;;;;;;;2.37;1.50;;;16.50;1.00;;;;;;4927699;29;20427;-91
2023/09/14 18:18:11;;;;;;;7.13;2.13;;;16.30;1.00;;;;;;4920783;29;20416;-89
2023/09/14 18:20:53;;;;;;;5.90;1.73;;;16.20;1.00;;;;;;4936208;29;20428;-91
2023/09/14 18:30:04;;;;;;;3.33;1.60;;;15.90;1.00;;;;;;4934998;29;20806;-89
2023/09/14 18:36:13;;;;;;;5.90;1.57;;;15.80;1.00;;;;;;4918822;29;20441;-89
2023/09/14 18:38:41;;;;;;;4.37;2.00;;;15.70;1.00;;;;;;4921388;29;20403;-89
2023/09/14 18:41:40;;;;;;;2.93;2.13;;;15.60;1.00;;;;;;4936846;29;20760;-88
2023/09/14 18:44:41;;;;;;;7.27;1.97;;;15.60;1.00;;;;;;4933965;29;20749;-89
2023/09/14 18:47:18;;;;;;;3.40;1.90;;;15.50;1.00;;;;;;4943525;29;20446;-84
2023/09/14 18:56:29;;;;;;;3.67;1.70;;;15.30;1.00;;;;;;4933326;29;20481;-91
2023/09/14 19:02:16;;;;;;;8.53;1.73;;;15.20;1.00;;;;;;4938098;29;20345;-95
2023/09/14 19:04:42;;;;;;;2.70;2.23;;;15.20;1.00;;;;;;4937358;29;20477;-95
2023/09/14 19:07:11;;;;;;;3.17;1.60;;;15.10;1.00;;;;;;4933888;29;20697;-82
2023/09/14 19:10:05;;;;;;;3.03;1.93;;;15.10;1.00;;;;;;4934492;29;20645;-80
2023/09/14 19:12:35;;;;;;;2.53;1.50;;;15.00;1.00;;;;;;4954762;29;20428;-81
2023/09/14 19:15:18;;;;;;;6.30;2.10;;;15.00;1.00;;;;;;4952674;29;20411;-80
2023/09/14 19:17:54;;;;;;;5.90;2.20;;;15.00;1.00;;;;;;4934782;29;20784;-80
2023/09/14 19:20:40;;;;;;;3.90;1.73;;;15.00;1.00;;;;;;4932762;29;20462;-80
2023/09/14 19:23:11;;;;;;;7.40;1.97;;;14.90;1.00;;;;;;4940596;29;20463;-80
2023/09/14 19:25:41;;;;;;;4.60;2.60;;;14.90;1.00;;;;;;4936432;29;20504;-82
2023/09/14 19:28:10;;;;;;;5.47;2.23;;;14.80;1.00;;;;;;4936450;29;20407;-82
2023/09/14 19:30:37;;;;;;;5.87;2.20;;;14.80;1.00;;;;;;4935680;29;20399;-80
2023/09/14 19:33:12;;;;;;;7.40;2.27;;;14.80;1.00;;;;;;4947092;29;20421;-80
2023/09/14 19:35:38;;;;;;;5.47;2.00;;;14.80;1.00;;;;;;4934201;29;20413;-80
2023/09/14 19:38:17;;;;;;;6.90;2.03;;;14.70;1.00;;;;;;4933788;29;20852;-79
2023/09/14 19:41:04;;;;;;;4.60;2.07;;;14.70;1.00;;;;;;4939120;29;20485;-80
2023/09/14 19:43:41;;;;;;;2.50;1.97;;;14.60;1.00;;;;;;4926103;29;20430;-80
2023/09/14 19:46:11;;;;;;;2.73;2.03;;;14.60;1.00;;;;;;4947315;29;20959;-80
2023/09/14 19:48:53;;;;;;;4.40;2.00;;;14.60;1.00;;;;;;4940755;29;20428;-80
2023/09/14 19:51:23;;;;;;;7.97;1.90;;;14.60;1.00;;;;;;4938209;29;20788;-80
2023/09/14 19:53:53;;;;;;;3.20;1.70;;;14.50;1.00;;;;;;4948915;29;20390;-80
2023/09/14 19:56:18;;;;;;;10.00;2.17;;;14.60;1.00;;;;;;4943054;29;20836;-80
2023/09/14 19:59:10;;;;;;;6.20;2.17;;;14.50;1.00;;;;;;4941915;29;20410;-80
2023/09/14 20:01:53;;;;;;;8.57;2.10;;;14.50;1.00;;;;;;4935377;29;20194;-81
2023/09/14 20:04:23;;;;;;;4.37;1.77;;;14.50;1.00;;;;;;4945075;29;20460;-81
2023/09/14 20:06:53;;;;;;;6.47;2.20;;;14.50;1.00;;;;;;4937181;29;21011;-81
2023/09/14 20:09:40;;;;;;;4.20;2.10;;;14.50;1.00;;;;;;4941398;29;20427;-81
2023/09/14 20:12:15;;;;;;;7.07;2.67;;;14.50;1.00;;;;;;4947453;29;20428;-81
2023/09/14 20:14:53;;;;;;;7.63;2.20;;;14.50;1.00;;;;;;4933255;29;20493;-81
2023/09/14 20:17:41;;;;;;;7.57;2.53;;;14.40;1.00;;;;;;4931095;29;20443;-81
2023/09/14 20:20:11;;;;;;;7.73;1.80;;;14.40;1.00;;;;;;4938400;29;20483;-81
2023/09/14 20:22:53;;;;;;;4.40;2.20;;;14.40;1.00;;;;;;4941279;29;20446;-81
2023/09/14 20:25:23;;;;;;;5.60;1.97;;;14.40;1.00;;;;;;4945793;29;20522;-81
2023/09/14 20:27:53;;;;;;;2.80;1.70;;;14.40;1.00;;;;;;4917096;29;20394;-81
2023/09/14 20:30:24;;;;;;;5.53;2.23;;;14.30;1.00;;;;;;4945055;29;20448;-81
2023/09/14 20:33:10;;;;;;;5.03;2.73;;;14.30;1.00;;;;;;4947906;29;20401;-81
2023/09/14 20:35:41;;;;;;;6.30;1.90;;;14.30;1.00;;;;;;4941224;29;20762;-81
2023/09/14 20:38:17;;;;;;;5.87;1.93;;;14.30;1.00;;;;;;4940708;29;20975;-81
2023/09/14 20:41:13;;;;;;;4.00;1.70;;;14.20;1.00;;;;;;4935807;29;20434;-81
2023/09/14 20:43:47;;;;;;;6.67;2.23;;;14.20;1.00;;;;;;4920583;29;20408;-81
2023/09/14 20:46:23;;;;;;;7.10;2.50;;;14.20;1.00;;;;;;4926601;29;20944;-81
2023/09/14 20:48:53;;;;;;;7.63;2.10;;;14.20;1.00;;;;;;4938289;29;20434;-81
2023/09/14 20:51:23;;;;;;;3.00;2.00;;;14.20;1.00;;;;;;4944488;29;21005;-81
2023/09/14 20:53:53;;;;;;;5.93;2.17;;;14.10;1.00;;;;;;4932430;29;20451;-81
2023/09/14 20:56:18;;;;;;;15.40;2.10;;;14.20;1.00;;;;;;4921171;29;20415;-81
2023/09/14 20:58:47;;;;;;;8.10;2.80;;;14.20;1.00;;;;;;4934637;29;21013;-81
2023/09/14 21:01:17;;;;;;;6.47;2.33;;;14.20;1.00;;;;;;4956504;29;20666;-81
2023/09/14 21:03:47;;;;;;;2.73;1.67;;;14.10;1.00;;;;;;4958588;29;20418;-80
2023/09/14 21:06:23;;;;;;;2.27;1.90;;;14.20;1.00;;;;;;4949895;29;20988;-80